Quinsam — VY6800 — position and weather

sailwx.info

Track history (hours):
 
Tides and Currents Weather Stations Pressure Air Temp Water Temp Dewpoint Dewpoint Depression Visibility Wind Speed Wind Dir Waves Ship Positions

Quinsam

Last reported at 2014-Jul-31 17:30 UTC. Time now 2014-Jul-31 17:42 UTC.
Position N 49°10' W 123°56'.

Length 88 m; draft 1.5 m.

Type: Ship. MMSI: 316001266.

Date/timePositionNaut miles runAvg speedWind from/ knotsBaromVisibWave heightAir tempDewpointWater temp
2014-Jul-31 17:30N 49°10' W 123°56'1 0.9
2014-Jul-31 16:34N 49°10' W 123°55'2 2.1
2014-Jul-31 15:33N 49°11' W 123°52'0 0.0
2014-Jul-31 14:32N 49°11' W 123°52'1 0.6
2014-Jul-31 13:33N 49°11' W 123°53'1 0.6
2014-Jul-31 12:33N 49°11' W 123°52'0 0.0
2014-Jul-31 11:24N 49°11' W 123°52'0 0.0
2014-Jul-31 10:24N 49°11' W 123°52'0 0.0
2014-Jul-31 09:27N 49°11' W 123°52'0 0.0
2014-Jul-31 06:33N 49°11' W 123°52'3 2.9
2014-Jul-31 05:33N 49°10' W 123°56'3 2.9
2014-Jul-31 04:33N 49°11' W 123°52'2 1.7
2014-Jul-31 03:33N 49°10' W 123°54'0 0.3
2014-Jul-31 02:33N 49°10' W 123°54'1 0.9
2014-Jul-31 01:32N 49°11' W 123°52'0 0.4
2014-Jul-31 00:31N 49°11' W 123°52'0 0.1
2014-Jul-30 23:33N 49°11' W 123°52'3 2.8
2014-Jul-30 22:33N 49°10' W 123°56'3 2.9
2014-Jul-30 21:33N 49°11' W 123°52'1 1.1
2014-Jul-30 20:33N 49°11' W 123°53'2 1.8
2014-Jul-30 19:33N 49°10' W 123°56'0 0.0
2014-Jul-30 18:33N 49°10' W 123°56'0 0.0
2014-Jul-30 17:33N 49°10' W 123°56'2 2.3
2014-Jul-30 16:33N 49°11' W 123°52'1 0.6
2014-Jul-30 15:32N 49°11' W 123°52'0 0.0
2014-Jul-30 14:33N 49°11' W 123°52'1 0.5
2014-Jul-30 13:33N 49°11' W 123°52'0 0.0
2014-Jul-30 12:33N 49°11' W 123°52'0 0.2
2014-Jul-30 10:06N 49°11' W 123°52'0 0.0
2014-Jul-30 09:30N 49°11' W 123°52'0 0.0
2014-Jul-30 06:30N 49°11' W 123°52'0 0.0
2014-Jul-30 05:33N 49°11' W 123°52'0 0.0
2014-Jul-30 04:28N 49°11' W 123°52'1 1.2
2014-Jul-30 03:33N 49°11' W 123°53'0 0.3
2014-Jul-30 02:33N 49°11' W 123°53'1 0.8
2014-Jul-30 01:33N 49°11' W 123°52'0 0.0
2014-Jul-30 00:29N 49°11' W 123°52'1 0.6
2014-Jul-29 23:34N 49°11' W 123°52'2 2.4
2014-Jul-29 22:33N 49°10' W 123°56'0 0.0
2014-Jul-29 21:25N 49°10' W 123°56'2 1.8
2014-Jul-29 20:34N 49°10' W 123°54'1 1.4
2014-Jul-29 19:33N 49°11' W 123°52'1 1.3
2014-Jul-29 18:33N 49°10' W 123°54'2 1.6
2014-Jul-29 17:34N 49°10' W 123°56'0 0.3
2014-Jul-29 16:34N 49°10' W 123°55'2 2.4
2014-Jul-29 15:32N 49°11' W 123°52'0 0.2
2014-Jul-29 14:25N 49°11' W 123°52'0 0.3
2014-Jul-29 13:33N 49°11' W 123°52'0 0.2
2014-Jul-29 12:33N 49°11' W 123°52'0 0.5
2014-Jul-29 11:32N 49°11' W 123°52'0 0.0
2014-Jul-29 10:26N 49°11' W 123°52'0 0.0
2014-Jul-29 09:20N 49°11' W 123°52'0 0.0
2014-Jul-29 08:29N 49°11' W 123°52'0 0.0
2014-Jul-29 07:32N 49°11' W 123°52'0 0.0
2014-Jul-29 06:27N 49°11' W 123°52'0 0.0
2014-Jul-29 05:27N 49°11' W 123°52'0 0.0
2014-Jul-29 04:27N 49°11' W 123°52'1 1.2
2014-Jul-29 03:33N 49°10' W 123°53'0 0.4
2014-Jul-29 02:34N 49°11' W 123°53'1 0.6
2014-Jul-29 01:29N 49°11' W 123°52'0 0.0
2014-Jul-29 00:23N 49°11' W 123°52'1 1.2
2014-Jul-28 23:33N 49°10' W 123°53'2 1.9
2014-Jul-28 22:34N 49°10' W 123°56'0 0.0
2014-Jul-28 21:33N 49°10' W 123°56'3 2.7
2014-Jul-28 20:29N 49°11' W 123°52'0 0.2
2014-Jul-28 19:33N 49°11' W 123°52'3 2.7
2014-Jul-28 18:34N 49°10' W 123°56'0 0.0
2014-Jul-28 17:33N 49°10' W 123°56'2 2.1
2014-Jul-28 16:33N 49°11' W 123°53'1 0.8
2014-Jul-28 15:32N 49°11' W 123°52'0 0.0
2014-Jul-28 14:33N 49°11' W 123°52'1 0.6
2014-Jul-28 13:33N 49°11' W 123°52'0 0.0
2014-Jul-28 12:33N 49°11' W 123°52'1 0.5
2014-Jul-28 11:30N 49°11' W 123°52'0 0.0
2014-Jul-28 10:30N 49°11' W 123°52'0 0.0
2014-Jul-28 09:24N 49°11' W 123°52'0 0.0
2014-Jul-28 08:30N 49°11' W 123°52'3 0.9
2014-Jul-28 05:33N 49°10' W 123°55'3 2.6
2014-Jul-28 04:32N 49°11' W 123°52'1 1.5
2014-Jul-28 03:34N 49°10' W 123°54'1 0.8
2014-Jul-28 02:33N 49°11' W 123°53'0 0.3
2014-Jul-28 01:33N 49°11' W 123°52'0 0.3
2014-Jul-28 00:28N 49°11' W 123°52'0 0.1
2014-Jul-27 23:33N 49°11' W 123°52'3 2.9
2014-Jul-27 22:34N 49°10' W 123°56'3 2.8
2014-Jul-27 21:33N 49°11' W 123°52'3 2.9
2014-Jul-27 20:33N 49°10' W 123°56'2 2.1
2014-Jul-27 19:34N 49°11' W 123°53'1 0.8
2014-Jul-27 18:32N 49°11' W 123°52'3 2.9
2014-Jul-27 17:33N 49°10' W 123°56'3 2.6
2014-Jul-27 16:33N 49°11' W 123°52'0 0.3
2014-Jul-27 15:32N 49°11' W 123°52'3 2.5
2014-Jul-27 14:23N 49°10' W 123°56'2 2.9
2014-Jul-27 13:34N 49°11' W 123°52'1 0.5
2014-Jul-27 12:32N 49°11' W 123°52'0 0.0
2014-Jul-27 11:20N 49°11' W 123°52'0 0.0
2014-Jul-27 10:32N 49°11' W 123°52'0 0.0
2014-Jul-27 09:14N 49°11' W 123°52'0 0.0
2014-Jul-27 06:28N 49°11' W 123°52'0 0.0
2014-Jul-27 05:33N 49°11' W 123°52'0 0.0
2014-Jul-27 04:32N 49°11' W 123°52'2 1.6
2014-Jul-27 03:34N 49°10' W 123°54'1 0.7
2014-Jul-27 02:33N 49°11' W 123°53'1 0.9
2014-Jul-27 01:33N 49°11' W 123°52'0 0.0
2014-Jul-27 00:34N 49°11' W 123°52'0 0.0
2014-Jul-26 23:33N 49°11' W 123°52'3 2.9
2014-Jul-26 22:33N 49°10' W 123°56'3 2.9
2014-Jul-26 21:33N 49°11' W 123°52'3 2.5
2014-Jul-26 20:33N 49°10' W 123°55'0 0.4
2014-Jul-26 19:32N 49°10' W 123°56'3 3.0
2014-Jul-26 18:34N 49°11' W 123°52'3 2.9
2014-Jul-26 17:33N 49°10' W 123°56'2 2.3
2014-Jul-26 16:33N 49°11' W 123°53'1 0.6
2014-Jul-26 15:33N 49°11' W 123°52'0 0.0
2014-Jul-26 14:34N 49°11' W 123°52'0 0.3
2014-Jul-26 13:34N 49°11' W 123°52'0 0.0
2014-Jul-26 06:33N 49°11' W 123°52'0 0.1
2014-Jul-26 05:32N 49°11' W 123°52'0 0.1
2014-Jul-26 04:05N 49°11' W 123°52'3 5.4
2014-Jul-26 03:33N 49°10' W 123°56'1 0.9
2014-Jul-26 02:34N 49°10' W 123°55'1 0.7
2014-Jul-26 01:33N 49°10' W 123°54'1 1.2
2014-Jul-26 00:32N 49°11' W 123°52'0 0.1
2014-Jul-25 23:33N 49°11' W 123°52'3 2.8
2014-Jul-25 22:33N 49°10' W 123°56'3 2.7
2014-Jul-25 21:30N 49°11' W 123°52'1 0.8
2014-Jul-25 20:33N 49°11' W 123°53'2 2.1
2014-Jul-25 19:34N 49°10' W 123°56'0 0.0
2014-Jul-25 18:33N 49°10' W 123°56'1 1.0
2014-Jul-25 17:33N 49°10' W 123°54'2 1.7
2014-Jul-25 16:33N 49°11' W 123°52'0 0.2
2014-Jul-25 15:33N 49°11' W 123°52'0 0.0
2014-Jul-25 14:33N 49°11' W 123°52'0 0.5
2014-Jul-25 13:34N 49°11' W 123°52'0 0.0
2014-Jul-25 12:33N 49°11' W 123°52'0 0.1
2014-Jul-25 09:15N 49°11' W 123°52'0 0.0
2014-Jul-25 06:27N 49°11' W 123°52'0 0.0
2014-Jul-25 05:33N 49°11' W 123°52'0 0.0
2014-Jul-25 04:33N 49°11' W 123°52'2 1.9
2014-Jul-25 03:33N 49°10' W 123°54'0 0.4
2014-Jul-25 02:33N 49°10' W 123°54'1 0.9
2014-Jul-25 01:33N 49°11' W 123°53'1 0.7
2014-Jul-25 00:33N 49°11' W 123°52'0 0.3
2014-Jul-24 23:33N 49°11' W 123°52'3 2.6
2014-Jul-24 22:33N 49°10' W 123°56'1 0.6
2014-Jul-24 21:33N 49°10' W 123°55'2 2.0
2014-Jul-24 20:32N 49°11' W 123°52'0 0.3
2014-Jul-24 19:33N 49°11' W 123°52'2 2.2
2014-Jul-24 18:33N 49°10' W 123°55'1 0.7
2014-Jul-24 17:33N 49°10' W 123°56'2 1.7
2014-Jul-24 16:33N 49°10' W 123°53'1 1.2
2014-Jul-24 15:33N 49°11' W 123°52'0 0.0
2014-Jul-24 14:30N 49°11' W 123°52'0 0.4
2014-Jul-24 13:33N 49°11' W 123°52'0 0.0
2014-Jul-24 12:33N 49°11' W 123°52'0 0.1
2014-Jul-24 08:17N 49°11' W 123°52'0 0.0
2014-Jul-24 07:23N 49°11' W 123°52'0 0.0
2014-Jul-24 06:31N 49°11' W 123°52'3 3.0
2014-Jul-24 05:33N 49°10' W 123°56'3 2.9
2014-Jul-24 04:33N 49°11' W 123°52'2 2.2
2014-Jul-24 03:33N 49°10' W 123°55'0 0.1
2014-Jul-24 02:33N 49°10' W 123°55'1 0.9
2014-Jul-24 01:33N 49°10' W 123°53'1 1.0
2014-Jul-24 00:33N 49°11' W 123°52'0 0.2
2014-Jul-23 23:33N 49°11' W 123°52'3 2.9
2014-Jul-23 22:33N 49°10' W 123°56'3 2.9
2014-Jul-23 21:33N 49°11' W 123°52'1 0.6
2014-Jul-23 20:33N 49°11' W 123°52'2 2.2
2014-Jul-23 19:33N 49°10' W 123°56'0 0.2
2014-Jul-23 18:33N 49°10' W 123°56'0 0.1
2014-Jul-23 17:33N 49°10' W 123°56'2 2.3
2014-Jul-23 16:33N 49°11' W 123°52'1 0.5
2014-Jul-23 15:33N 49°11' W 123°52'0 0.0
2014-Jul-23 14:31N 49°11' W 123°52'1 0.5
2014-Jul-23 13:33N 49°11' W 123°52'0 0.0
2014-Jul-23 12:34N 49°11' W 123°52'0 0.1
2014-Jul-23 06:24N 49°11' W 123°52'0 0.1
2014-Jul-23 05:33N 49°11' W 123°52'0 0.0
2014-Jul-23 04:13N 49°11' W 123°52'1 2.0
2014-Jul-23 03:33N 49°10' W 123°54'1 0.6
2014-Jul-23 02:33N 49°11' W 123°53'1 0.7
2014-Jul-23 01:33N 49°11' W 123°52'0 0.1
2014-Jul-23 00:28N 49°11' W 123°52'1 1.6
2014-Jul-22 23:34N 49°10' W 123°54'1 1.4
2014-Jul-22 22:33N 49°10' W 123°56'1 1.4
2014-Jul-22 21:34N 49°10' W 123°54'1 1.3
2014-Jul-22 20:33N 49°11' W 123°52'0 0.2
2014-Jul-22 19:22N 49°11' W 123°52'1 1.8
2014-Jul-22 18:33N 49°10' W 123°54'1 1.4
2014-Jul-22 17:33N 49°10' W 123°56'1 0.6
2014-Jul-22 16:34N 49°10' W 123°55'2 2.2
2014-Jul-22 15:32N 49°11' W 123°52'0 0.0
2014-Jul-22 14:33N 49°11' W 123°52'0 0.3
2014-Jul-22 13:33N 49°11' W 123°52'0 0.3
2014-Jul-22 12:33N 49°11' W 123°52'1 0.1
2014-Jul-22 06:29N 49°11' W 123°52'0 0.0
2014-Jul-22 05:33N 49°11' W 123°52'0 0.0
2014-Jul-22 04:29N 49°11' W 123°52'1 1.3
2014-Jul-22 03:33N 49°10' W 123°53'0 0.2
2014-Jul-22 02:33N 49°10' W 123°53'1 0.6
2014-Jul-22 01:32N 49°11' W 123°52'1 0.5
2014-Jul-22 00:30N 49°11' W 123°52'0 0.0
2014-Jul-21 23:33N 49°11' W 123°52'3 2.9
2014-Jul-21 22:33N 49°10' W 123°56'1 0.6
2014-Jul-21 21:33N 49°10' W 123°55'2 1.8
2014-Jul-21 20:33N 49°11' W 123°52'2 9.4
2014-Jul-21 20:18N 49°10' W 123°56'3 3.5
2014-Jul-21 19:28N 49°11' W 123°52'3 2.8
2014-Jul-21 18:33N 49°10' W 123°55'0 0.4
2014-Jul-21 17:32N 49°10' W 123°56'  
Track history (hours):
 
Tides and Currents Weather Stations Pressure Air Temp Water Temp Dewpoint Dewpoint Depression Visibility Wind Speed Wind Dir Waves Ship Positions

Quinsam

Last reported at 2014-Jul-31 17:30 UTC. Time now 2014-Jul-31 17:42 UTC.
Position N 49°10' W 123°56'.

Length 88 m; draft 1.5 m.

Type: Ship. MMSI: 316001266.

Date/timePositionNaut miles runAvg speedWind from/ knotsBaromVisibWave heightAir tempDewpointWater temp
2014-Jul-31 17:30N 49°10' W 123°56'1 0.9
2014-Jul-31 16:34N 49°10' W 123°55'2 2.1
2014-Jul-31 15:33N 49°11' W 123°52'0 0.0
2014-Jul-31 14:32N 49°11' W 123°52'1 0.6
2014-Jul-31 13:33N 49°11' W 123°53'1 0.6
2014-Jul-31 12:33N 49°11' W 123°52'0 0.0
2014-Jul-31 11:24N 49°11' W 123°52'0 0.0
2014-Jul-31 10:24N 49°11' W 123°52'0 0.0
2014-Jul-31 09:27N 49°11' W 123°52'0 0.0
2014-Jul-31 06:33N 49°11' W 123°52'3 2.9
2014-Jul-31 05:33N 49°10' W 123°56'3 2.9
2014-Jul-31 04:33N 49°11' W 123°52'2 1.7
2014-Jul-31 03:33N 49°10' W 123°54'0 0.3
2014-Jul-31 02:33N 49°10' W 123°54'1 0.9
2014-Jul-31 01:32N 49°11' W 123°52'0 0.4
2014-Jul-31 00:31N 49°11' W 123°52'0 0.1
2014-Jul-30 23:33N 49°11' W 123°52'3 2.8
2014-Jul-30 22:33N 49°10' W 123°56'3 2.9
2014-Jul-30 21:33N 49°11' W 123°52'1 1.1
2014-Jul-30 20:33N 49°11' W 123°53'2 1.8
2014-Jul-30 19:33N 49°10' W 123°56'0 0.0
2014-Jul-30 18:33N 49°10' W 123°56'0 0.0
2014-Jul-30 17:33N 49°10' W 123°56'2 2.3
2014-Jul-30 16:33N 49°11' W 123°52'1 0.6
2014-Jul-30 15:32N 49°11' W 123°52'0 0.0
2014-Jul-30 14:33N 49°11' W 123°52'1 0.5
2014-Jul-30 13:33N 49°11' W 123°52'0 0.0
2014-Jul-30 12:33N 49°11' W 123°52'0 0.2
2014-Jul-30 10:06N 49°11' W 123°52'0 0.0
2014-Jul-30 09:30N 49°11' W 123°52'0 0.0
2014-Jul-30 06:30N 49°11' W 123°52'0 0.0
2014-Jul-30 05:33N 49°11' W 123°52'0 0.0
2014-Jul-30 04:28N 49°11' W 123°52'1 1.2
2014-Jul-30 03:33N 49°11' W 123°53'0 0.3
2014-Jul-30 02:33N 49°11' W 123°53'1 0.8
2014-Jul-30 01:33N 49°11' W 123°52'0 0.0
2014-Jul-30 00:29N 49°11' W 123°52'1 0.6
2014-Jul-29 23:34N 49°11' W 123°52'2 2.4
2014-Jul-29 22:33N 49°10' W 123°56'0 0.0
2014-Jul-29 21:25N 49°10' W 123°56'2 1.8
2014-Jul-29 20:34N 49°10' W 123°54'1 1.4
2014-Jul-29 19:33N 49°11' W 123°52'1 1.3
2014-Jul-29 18:33N 49°10' W 123°54'2 1.6
2014-Jul-29 17:34N 49°10' W 123°56'0 0.3
2014-Jul-29 16:34N 49°10' W 123°55'2 2.4
2014-Jul-29 15:32N 49°11' W 123°52'0 0.2
2014-Jul-29 14:25N 49°11' W 123°52'0 0.3
2014-Jul-29 13:33N 49°11' W 123°52'0 0.2
2014-Jul-29 12:33N 49°11' W 123°52'0 0.5
2014-Jul-29 11:32N 49°11' W 123°52'0 0.0
2014-Jul-29 10:26N 49°11' W 123°52'0 0.0
2014-Jul-29 09:20N 49°11' W 123°52'0 0.0
2014-Jul-29 08:29N 49°11' W 123°52'0 0.0
2014-Jul-29 07:32N 49°11' W 123°52'0 0.0
2014-Jul-29 06:27N 49°11' W 123°52'0 0.0
2014-Jul-29 05:27N 49°11' W 123°52'0 0.0
2014-Jul-29 04:27N 49°11' W 123°52'1 1.2
2014-Jul-29 03:33N 49°10' W 123°53'0 0.4
2014-Jul-29 02:34N 49°11' W 123°53'1 0.6
2014-Jul-29 01:29N 49°11' W 123°52'0 0.0
2014-Jul-29 00:23N 49°11' W 123°52'1 1.2
2014-Jul-28 23:33N 49°10' W 123°53'2 1.9
2014-Jul-28 22:34N 49°10' W 123°56'0 0.0
2014-Jul-28 21:33N 49°10' W 123°56'3 2.7
2014-Jul-28 20:29N 49°11' W 123°52'0 0.2
2014-Jul-28 19:33N 49°11' W 123°52'3 2.7
2014-Jul-28 18:34N 49°10' W 123°56'0 0.0
2014-Jul-28 17:33N 49°10' W 123°56'2 2.1
2014-Jul-28 16:33N 49°11' W 123°53'1 0.8
2014-Jul-28 15:32N 49°11' W 123°52'0 0.0
2014-Jul-28 14:33N 49°11' W 123°52'1 0.6
2014-Jul-28 13:33N 49°11' W 123°52'0 0.0
2014-Jul-28 12:33N 49°11' W 123°52'1 0.5
2014-Jul-28 11:30N 49°11' W 123°52'0 0.0
2014-Jul-28 10:30N 49°11' W 123°52'0 0.0
2014-Jul-28 09:24N 49°11' W 123°52'0 0.0
2014-Jul-28 08:30N 49°11' W 123°52'3 0.9
2014-Jul-28 05:33N 49°10' W 123°55'3 2.6
2014-Jul-28 04:32N 49°11' W 123°52'1 1.5
2014-Jul-28 03:34N 49°10' W 123°54'1 0.8
2014-Jul-28 02:33N 49°11' W 123°53'0 0.3
2014-Jul-28 01:33N 49°11' W 123°52'0 0.3
2014-Jul-28 00:28N 49°11' W 123°52'0 0.1
2014-Jul-27 23:33N 49°11' W 123°52'3 2.9
2014-Jul-27 22:34N 49°10' W 123°56'3 2.8
2014-Jul-27 21:33N 49°11' W 123°52'3 2.9
2014-Jul-27 20:33N 49°10' W 123°56'2 2.1
2014-Jul-27 19:34N 49°11' W 123°53'1 0.8
2014-Jul-27 18:32N 49°11' W 123°52'3 2.9
2014-Jul-27 17:33N 49°10' W 123°56'3 2.6
2014-Jul-27 16:33N 49°11' W 123°52'0 0.3
2014-Jul-27 15:32N 49°11' W 123°52'3 2.5
2014-Jul-27 14:23N 49°10' W 123°56'2 2.9
2014-Jul-27 13:34N 49°11' W 123°52'1 0.5
2014-Jul-27 12:32N 49°11' W 123°52'0 0.0
2014-Jul-27 11:20N 49°11' W 123°52'0 0.0
2014-Jul-27 10:32N 49°11' W 123°52'0 0.0
2014-Jul-27 09:14N 49°11' W 123°52'0 0.0
2014-Jul-27 06:28N 49°11' W 123°52'0 0.0
2014-Jul-27 05:33N 49°11' W 123°52'0 0.0
2014-Jul-27 04:32N 49°11' W 123°52'2 1.6
2014-Jul-27 03:34N 49°10' W 123°54'1 0.7
2014-Jul-27 02:33N 49°11' W 123°53'1 0.9
2014-Jul-27 01:33N 49°11' W 123°52'0 0.0
2014-Jul-27 00:34N 49°11' W 123°52'0 0.0
2014-Jul-26 23:33N 49°11' W 123°52'3 2.9
2014-Jul-26 22:33N 49°10' W 123°56'3 2.9
2014-Jul-26 21:33N 49°11' W 123°52'3 2.5
2014-Jul-26 20:33N 49°10' W 123°55'0 0.4
2014-Jul-26 19:32N 49°10' W 123°56'3 3.0
2014-Jul-26 18:34N 49°11' W 123°52'3 2.9
2014-Jul-26 17:33N 49°10' W 123°56'2 2.3
2014-Jul-26 16:33N 49°11' W 123°53'1 0.6
2014-Jul-26 15:33N 49°11' W 123°52'0 0.0
2014-Jul-26 14:34N 49°11' W 123°52'0 0.3
2014-Jul-26 13:34N 49°11' W 123°52'0 0.0
2014-Jul-26 06:33N 49°11' W 123°52'0 0.1
2014-Jul-26 05:32N 49°11' W 123°52'0 0.1
2014-Jul-26 04:05N 49°11' W 123°52'3 5.4
2014-Jul-26 03:33N 49°10' W 123°56'1 0.9
2014-Jul-26 02:34N 49°10' W 123°55'1 0.7
2014-Jul-26 01:33N 49°10' W 123°54'1 1.2
2014-Jul-26 00:32N 49°11' W 123°52'0 0.1
2014-Jul-25 23:33N 49°11' W 123°52'3 2.8
2014-Jul-25 22:33N 49°10' W 123°56'3 2.7
2014-Jul-25 21:30N 49°11' W 123°52'1 0.8
2014-Jul-25 20:33N 49°11' W 123°53'2 2.1
2014-Jul-25 19:34N 49°10' W 123°56'0 0.0
2014-Jul-25 18:33N 49°10' W 123°56'1 1.0
2014-Jul-25 17:33N 49°10' W 123°54'2 1.7
2014-Jul-25 16:33N 49°11' W 123°52'0 0.2
2014-Jul-25 15:33N 49°11' W 123°52'0 0.0
2014-Jul-25 14:33N 49°11' W 123°52'0 0.5
2014-Jul-25 13:34N 49°11' W 123°52'0 0.0
2014-Jul-25 12:33N 49°11' W 123°52'0 0.1
2014-Jul-25 09:15N 49°11' W 123°52'0 0.0
2014-Jul-25 06:27N 49°11' W 123°52'0 0.0
2014-Jul-25 05:33N 49°11' W 123°52'0 0.0
2014-Jul-25 04:33N 49°11' W 123°52'2 1.9
2014-Jul-25 03:33N 49°10' W 123°54'0 0.4
2014-Jul-25 02:33N 49°10' W 123°54'1 0.9
2014-Jul-25 01:33N 49°11' W 123°53'1 0.7
2014-Jul-25 00:33N 49°11' W 123°52'0 0.3
2014-Jul-24 23:33N 49°11' W 123°52'3 2.6
2014-Jul-24 22:33N 49°10' W 123°56'1 0.6
2014-Jul-24 21:33N 49°10' W 123°55'2 2.0
2014-Jul-24 20:32N 49°11' W 123°52'0 0.3
2014-Jul-24 19:33N 49°11' W 123°52'2 2.2
2014-Jul-24 18:33N 49°10' W 123°55'1 0.7
2014-Jul-24 17:33N 49°10' W 123°56'2 1.7
2014-Jul-24 16:33N 49°10' W 123°53'1 1.2
2014-Jul-24 15:33N 49°11' W 123°52'0 0.0
2014-Jul-24 14:30N 49°11' W 123°52'0 0.4
2014-Jul-24 13:33N 49°11' W 123°52'0 0.0
2014-Jul-24 12:33N 49°11' W 123°52'0 0.1
2014-Jul-24 08:17N 49°11' W 123°52'0 0.0
2014-Jul-24 07:23N 49°11' W 123°52'0 0.0
2014-Jul-24 06:31N 49°11' W 123°52'3 3.0
2014-Jul-24 05:33N 49°10' W 123°56'3 2.9
2014-Jul-24 04:33N 49°11' W 123°52'2 2.2
2014-Jul-24 03:33N 49°10' W 123°55'0 0.1
2014-Jul-24 02:33N 49°10' W 123°55'1 0.9
2014-Jul-24 01:33N 49°10' W 123°53'1 1.0
2014-Jul-24 00:33N 49°11' W 123°52'0 0.2
2014-Jul-23 23:33N 49°11' W 123°52'3 2.9
2014-Jul-23 22:33N 49°10' W 123°56'3 2.9
2014-Jul-23 21:33N 49°11' W 123°52'1 0.6
2014-Jul-23 20:33N 49°11' W 123°52'2 2.2
2014-Jul-23 19:33N 49°10' W 123°56'0 0.2
2014-Jul-23 18:33N 49°10' W 123°56'0 0.1
2014-Jul-23 17:33N 49°10' W 123°56'2 2.3
2014-Jul-23 16:33N 49°11' W 123°52'1 0.5
2014-Jul-23 15:33N 49°11' W 123°52'0 0.0
2014-Jul-23 14:31N 49°11' W 123°52'1 0.5
2014-Jul-23 13:33N 49°11' W 123°52'0 0.0
2014-Jul-23 12:34N 49°11' W 123°52'0 0.1
2014-Jul-23 06:24N 49°11' W 123°52'0 0.1
2014-Jul-23 05:33N 49°11' W 123°52'0 0.0
2014-Jul-23 04:13N 49°11' W 123°52'1 2.0
2014-Jul-23 03:33N 49°10' W 123°54'1 0.6
2014-Jul-23 02:33N 49°11' W 123°53'1 0.7
2014-Jul-23 01:33N 49°11' W 123°52'0 0.1
2014-Jul-23 00:28N 49°11' W 123°52'1 1.6
2014-Jul-22 23:34N 49°10' W 123°54'1 1.4
2014-Jul-22 22:33N 49°10' W 123°56'1 1.4
2014-Jul-22 21:34N 49°10' W 123°54'1 1.3
2014-Jul-22 20:33N 49°11' W 123°52'0 0.2
2014-Jul-22 19:22N 49°11' W 123°52'1 1.8
2014-Jul-22 18:33N 49°10' W 123°54'1 1.4
2014-Jul-22 17:33N 49°10' W 123°56'1 0.6
2014-Jul-22 16:34N 49°10' W 123°55'2 2.2
2014-Jul-22 15:32N 49°11' W 123°52'0 0.0
2014-Jul-22 14:33N 49°11' W 123°52'0 0.3
2014-Jul-22 13:33N 49°11' W 123°52'0 0.3
2014-Jul-22 12:33N 49°11' W 123°52'1 0.1
2014-Jul-22 06:29N 49°11' W 123°52'0 0.0
2014-Jul-22 05:33N 49°11' W 123°52'0 0.0
2014-Jul-22 04:29N 49°11' W 123°52'1 1.3
2014-Jul-22 03:33N 49°10' W 123°53'0 0.2
2014-Jul-22 02:33N 49°10' W 123°53'1 0.6
2014-Jul-22 01:32N 49°11' W 123°52'1 0.5
2014-Jul-22 00:30N 49°11' W 123°52'0 0.0
2014-Jul-21 23:33N 49°11' W 123°52'3 2.9
2014-Jul-21 22:33N 49°10' W 123°56'1 0.6
2014-Jul-21 21:33N 49°10' W 123°55'2 1.8
2014-Jul-21 20:33N 49°11' W 123°52'2 9.4
2014-Jul-21 20:18N 49°10' W 123°56'3 3.5
2014-Jul-21 19:28N 49°11' W 123°52'3 2.8
2014-Jul-21 18:33N 49°10' W 123°55'0 0.4
2014-Jul-21 17:32N 49°10' W 123°56'  

Dump ship's entire track history